createdAt,value
2019-04-22T00:00:36.024Z,3.20
2019-04-22T00:03:03.658Z,3.70
2019-04-22T00:05:51.240Z,3.47
2019-04-22T00:08:29.499Z,3.63
2019-04-22T00:11:06.363Z,3.60
2019-04-22T00:13:32.418Z,3.07
2019-04-22T00:15:59.304Z,3.50
2019-04-22T00:18:48.014Z,3.40
2019-04-22T00:21:04.849Z,3.70
2019-04-22T00:23:39.469Z,4.10
2019-04-22T00:26:38.058Z,4.30
2019-04-22T00:29:20.805Z,3.43
2019-04-22T00:32:03.427Z,3.50
2019-04-22T00:34:30.204Z,3.23
2019-04-22T00:37:00.547Z,3.77
2019-04-22T00:39:35.922Z,3.97
2019-04-22T00:42:01.778Z,3.97
2019-04-22T00:44:40.349Z,3.67
2019-04-22T00:47:07.729Z,3.93
2019-04-22T00:52:09.365Z,4.23
2019-04-22T00:54:47.668Z,3.50
2019-04-22T00:57:15.666Z,4.40
2019-04-22T00:59:45.433Z,3.90
2019-04-22T01:02:24.545Z,4.43
2019-04-22T01:04:49.043Z,4.57
2019-04-22T01:07:18.769Z,4.73
2019-04-22T01:09:56.184Z,4.50
2019-04-22T01:12:28.546Z,4.00
2019-04-22T01:14:57.326Z,4.20
2019-04-22T01:17:29.325Z,4.77
2019-04-22T01:19:58.714Z,4.23
2019-04-22T01:22:39.359Z,4.27
2019-04-22T01:24:57.580Z,4.17
2019-04-22T01:27:20.459Z,4.43
2019-04-22T01:29:48.923Z,4.57
2019-04-22T01:32:15.364Z,3.80
2019-04-22T01:34:57.989Z,4.07
2019-04-22T01:37:34.621Z,3.87
2019-04-22T01:40:09.982Z,3.37
2019-04-22T01:42:50.531Z,3.87
2019-04-22T01:45:19.373Z,3.70
2019-04-22T01:47:43.884Z,4.07
2019-04-22T01:50:24.045Z,4.33
2019-04-22T01:52:56.787Z,3.80
2019-04-22T01:55:27.715Z,3.80
2019-04-22T01:57:47.704Z,4.27
2019-04-22T02:00:19.003Z,4.30
2019-04-22T02:03:01.110Z,4.10
2019-04-22T02:05:26.459Z,4.40
2019-04-22T02:07:59.515Z,4.03
2019-04-22T02:10:36.290Z,4.00
2019-04-22T02:13:01.960Z,4.10
2019-04-22T02:15:31.247Z,3.83
2019-04-22T02:18:11.553Z,3.93
2019-04-22T02:20:40.593Z,3.67
2019-04-22T02:26:04.051Z,4.17
2019-04-22T02:28:36.725Z,4.07
2019-04-22T02:31:23.225Z,3.90
2019-04-22T02:34:01.588Z,4.20
2019-04-22T02:41:23.212Z,3.93
2019-04-22T02:51:30.098Z,3.97
2019-04-22T03:07:20.768Z,4.77
2019-04-22T03:09:07.269Z,4.10
2019-04-22T03:11:55.351Z,4.50
2019-04-22T03:14:01.430Z,4.07
2019-04-22T03:16:33.289Z,4.07
2019-04-22T03:19:28.019Z,3.60
2019-04-22T03:21:31.256Z,4.13
2019-04-22T03:24:16.065Z,4.27
2019-04-22T03:29:04.155Z,4.10
2019-04-22T03:32:33.471Z,4.20
2019-04-22T03:45:00.554Z,4.10
2019-04-22T03:47:17.603Z,4.33
2019-04-22T03:50:07.950Z,4.37
2019-04-22T03:52:16.442Z,3.97
2019-04-22T03:55:00.751Z,4.73
2019-04-22T03:59:56.741Z,4.13
2019-04-22T04:02:28.864Z,3.77
2019-04-22T04:04:50.294Z,4.07
2019-04-22T04:10:08.077Z,3.67
2019-04-22T04:12:42.035Z,4.27
2019-04-22T04:15:14.109Z,3.97
2019-04-22T04:20:10.900Z,4.17
2019-04-22T04:27:53.768Z,3.87
2019-04-22T04:35:25.646Z,4.17
2019-04-22T04:40:21.296Z,3.80
2019-04-22T04:50:22.577Z,4.63
2019-04-22T05:03:08.105Z,4.77
2019-04-22T05:08:01.079Z,4.23
2019-04-22T05:10:42.697Z,4.03
2019-04-22T05:13:01.100Z,4.40
2019-04-22T05:15:55.341Z,4.33
2019-04-22T05:18:06.525Z,4.20
2019-04-22T05:20:59.663Z,4.33
2019-04-22T05:23:05.745Z,4.07
2019-04-22T05:25:32.353Z,5.00
2019-04-22T05:28:10.471Z,4.37
2019-04-22T05:30:57.122Z,4.03
2019-04-22T05:33:09.311Z,4.40
2019-04-22T05:36:06.059Z,4.40
2019-04-22T05:38:17.651Z,5.43
2019-04-22T05:40:41.128Z,4.50
2019-04-22T05:43:15.894Z,4.37
2019-04-22T05:45:43.231Z,4.23
2019-04-22T05:48:18.338Z,4.73
2019-04-22T05:50:54.334Z,4.50
2019-04-22T05:53:19.574Z,4.60
2019-04-22T05:56:17.125Z,4.43
2019-04-22T05:58:25.933Z,4.00
2019-04-22T06:01:29.144Z,3.90
2019-04-22T06:03:46.255Z,4.30
2019-04-22T06:06:13.712Z,4.10
2019-04-22T06:08:45.505Z,3.03
2019-04-22T06:11:24.161Z,3.97
2019-04-22T06:13:45.209Z,3.70
2019-04-22T06:16:22.842Z,3.70
2019-04-22T06:18:49.001Z,3.50
2019-04-22T06:21:20.011Z,4.70
2019-04-22T06:23:58.799Z,4.33
2019-04-22T06:26:35.775Z,3.77
2019-04-22T06:28:55.140Z,3.80
2019-04-22T06:31:37.331Z,4.10
2019-04-22T06:34:06.015Z,4.40
2019-04-22T06:36:29.571Z,3.83
2019-04-22T06:39:05.282Z,4.37
2019-04-22T06:41:31.039Z,4.23
2019-04-22T06:44:04.408Z,4.07
2019-04-22T06:46:36.728Z,3.70
2019-04-22T06:49:09.625Z,4.00
2019-04-22T06:51:43.163Z,4.63
2019-04-22T06:54:07.491Z,4.10
2019-04-22T06:56:42.594Z,3.47
2019-04-22T06:59:14.866Z,4.13
2019-04-22T07:04:14.131Z,3.80
2019-04-22T07:06:48.096Z,4.13
2019-04-22T07:09:36.632Z,4.10
2019-04-22T07:11:50.002Z,4.63
2019-04-22T07:14:18.657Z,4.50
2019-04-22T07:16:51.242Z,4.27
2019-04-22T07:21:57.928Z,4.30
2019-04-22T07:27:02.979Z,3.90
2019-04-22T07:29:32.575Z,4.63
2019-04-22T07:32:00.338Z,3.57
2019-04-22T07:34:33.109Z,4.27
2019-04-22T07:37:20.765Z,3.87
2019-04-22T07:39:35.574Z,4.07
2019-04-22T07:42:17.199Z,4.60
2019-04-22T07:44:43.595Z,4.13
2019-04-22T07:49:47.227Z,3.83
2019-04-22T07:52:18.805Z,4.00
2019-04-22T07:54:50.899Z,3.87
2019-04-22T07:57:24.694Z,3.97
2019-04-22T07:59:49.315Z,3.90
2019-04-22T08:02:26.432Z,3.40
2019-04-22T08:05:05.429Z,3.20
2019-04-22T08:07:24.410Z,3.57
2019-04-22T08:10:09.355Z,2.83
2019-04-22T08:12:34.913Z,3.40
2019-04-22T08:14:59.790Z,2.97
2019-04-22T08:17:53.415Z,3.17
2019-04-22T08:20:02.770Z,3.13
2019-04-22T08:22:40.162Z,3.23
2019-04-22T08:25:05.496Z,3.00
2019-04-22T08:27:35.619Z,4.80
2019-04-22T08:32:41.614Z,2.97
2019-04-22T08:35:14.307Z,3.30
2019-04-22T08:37:53.858Z,3.07
2019-04-22T08:40:24.189Z,2.93
2019-04-22T08:42:56.676Z,2.97
2019-04-22T08:45:22.734Z,3.03
2019-04-22T08:47:48.243Z,2.90
2019-04-22T08:50:21.954Z,3.00
2019-04-22T08:52:48.355Z,3.13
2019-04-22T08:55:28.984Z,3.60
2019-04-22T08:58:08.428Z,3.17
2019-04-22T09:00:30.994Z,3.47
2019-04-22T09:03:02.227Z,3.00
2019-04-22T09:05:42.434Z,3.47
2019-04-22T09:08:01.446Z,3.13
2019-04-22T09:10:32.804Z,3.13
2019-04-22T09:15:35.557Z,3.00
2019-04-22T09:18:09.521Z,3.20
2019-04-22T09:20:40.350Z,3.30
2019-04-22T09:23:07.616Z,2.90
2019-04-22T09:25:43.312Z,3.13
2019-04-22T09:28:15.210Z,3.60
2019-04-22T09:30:49.580Z,3.30
2019-04-22T09:35:52.155Z,2.90
2019-04-22T09:41:10.324Z,2.90
2019-04-22T09:43:24.074Z,3.00
2019-04-22T09:45:53.258Z,3.30
2019-04-22T09:48:33.173Z,3.20
2019-04-22T09:50:57.469Z,3.17
2019-04-22T09:53:32.557Z,2.93
2019-04-22T09:55:57.256Z,2.83
2019-04-22T09:58:31.876Z,3.20
2019-04-22T10:01:18.710Z,3.27
2019-04-22T10:03:44.581Z,3.03
2019-04-22T10:06:21.141Z,2.93
2019-04-22T10:09:00.812Z,3.57
2019-04-22T10:11:23.999Z,2.97
2019-04-22T10:13:48.010Z,3.10
2019-04-22T10:16:17.554Z,2.93
2019-04-22T10:18:54.452Z,3.27
2019-04-22T10:21:33.619Z,2.90
2019-04-22T10:23:50.871Z,2.50
2019-04-22T10:26:27.917Z,3.03
2019-04-22T10:31:32.781Z,2.90
2019-04-22T10:33:49.631Z,3.10
2019-04-22T10:36:05.644Z,3.07
2019-04-22T10:38:36.762Z,2.83
2019-04-22T10:41:06.127Z,3.30
2019-04-22T10:43:37.126Z,3.10
2019-04-22T10:46:08.220Z,2.80
2019-04-22T10:48:38.328Z,3.27
2019-04-22T10:51:08.572Z,2.87
2019-04-22T10:53:37.982Z,2.63
2019-04-22T10:56:09.200Z,2.80
2019-04-22T10:58:38.809Z,8.77
2019-04-22T11:01:09.449Z,3.30
2019-04-22T11:03:39.603Z,2.93
2019-04-22T11:06:09.766Z,2.97
2019-04-22T11:08:48.242Z,2.70
2019-04-22T11:11:21.375Z,2.87
2019-04-22T11:13:42.045Z,3.10
2019-04-22T11:16:13.710Z,3.20
2019-04-22T11:18:43.783Z,3.00
2019-04-22T11:21:13.871Z,3.23
2019-04-22T11:23:44.758Z,2.93
2019-04-22T11:26:15.434Z,3.30
2019-04-22T11:28:45.523Z,3.70
2019-04-22T11:31:16.583Z,3.40
2019-04-22T11:33:48.200Z,3.50
2019-04-22T11:36:19.782Z,3.10
2019-04-22T11:38:56.404Z,3.10
2019-04-22T11:41:21.605Z,3.60
2019-04-22T11:43:51.352Z,3.27
2019-04-22T11:46:21.262Z,3.00
2019-04-22T11:48:51.895Z,3.07
2019-04-22T11:51:22.129Z,3.73
2019-04-22T11:53:52.603Z,3.80
2019-04-22T11:56:22.928Z,3.80
2019-04-22T11:58:53.049Z,3.63
2019-04-22T12:01:22.416Z,3.97
2019-04-22T12:03:53.714Z,3.87
2019-04-22T12:06:24.020Z,3.60
2019-04-22T12:08:54.200Z,3.23
2019-04-22T12:11:24.317Z,3.47
2019-04-22T12:13:55.723Z,3.50
2019-04-22T12:16:55.457Z,3.80
2019-04-22T12:19:05.048Z,3.40
2019-04-22T12:21:35.274Z,3.27
2019-04-22T12:24:06.756Z,3.50
2019-04-22T12:26:36.198Z,3.27
2019-04-22T12:29:07.059Z,3.47
2019-04-22T12:31:47.702Z,2.90
2019-04-22T12:34:17.373Z,4.07
2019-04-22T12:36:48.774Z,3.07
2019-04-22T12:39:18.938Z,3.13
2019-04-22T12:41:48.249Z,3.17
2019-04-22T12:44:18.163Z,3.17
2019-04-22T12:46:50.261Z,3.80
2019-04-22T12:49:20.501Z,2.80
2019-04-22T12:51:51.363Z,3.10
2019-04-22T12:54:21.579Z,3.40
2019-04-22T12:56:51.574Z,2.93
2019-04-22T12:59:21.591Z,3.10
2019-04-22T13:01:52.721Z,3.00
2019-04-22T13:04:23.661Z,2.93
2019-04-22T13:06:55.549Z,2.97
2019-04-22T13:09:25.604Z,3.07
2019-04-22T13:11:57.075Z,3.70
2019-04-22T13:14:27.467Z,3.07
2019-04-22T13:16:57.751Z,3.30
2019-04-22T13:19:28.349Z,2.93
2019-04-22T13:22:00.976Z,3.10
2019-04-22T13:24:32.030Z,3.20
2019-04-22T13:27:03.295Z,3.13
2019-04-22T13:29:33.238Z,3.63
2019-04-22T13:32:04.753Z,3.57
2019-04-22T13:34:43.674Z,3.10
2019-04-22T13:37:07.380Z,3.67
2019-04-22T13:39:38.863Z,3.40
2019-04-22T13:42:12.402Z,2.47
2019-04-22T13:44:41.786Z,2.93
2019-04-22T13:47:29.808Z,3.30
2019-04-22T13:50:17.824Z,3.50
2019-04-22T13:52:49.063Z,3.47
2019-04-22T13:55:15.948Z,3.30
2019-04-22T13:57:39.414Z,3.07
2019-04-22T13:59:57.598Z,3.00
2019-04-22T14:02:36.805Z,3.43
2019-04-22T14:05:08.668Z,3.07
2019-04-22T14:07:38.887Z,3.40
2019-04-22T14:10:09.105Z,3.43
2019-04-22T14:12:39.227Z,3.40
2019-04-22T14:15:09.948Z,3.67
2019-04-22T14:17:41.017Z,3.60
2019-04-22T14:20:11.393Z,3.47
2019-04-22T14:22:41.325Z,3.20
2019-04-22T14:25:12.643Z,3.40
2019-04-22T14:27:51.398Z,3.10
2019-04-22T14:30:16.756Z,3.60
2019-04-22T14:32:47.732Z,2.97
2019-04-22T14:35:18.974Z,3.57
2019-04-22T14:37:50.254Z,3.50
2019-04-22T14:40:22.530Z,2.77
2019-04-22T14:43:13.500Z,3.20
2019-04-22T14:46:01.545Z,3.17
2019-04-22T14:48:22.799Z,3.10
2019-04-22T14:50:45.256Z,2.73
2019-04-22T14:53:21.118Z,3.33
2019-04-22T14:55:33.295Z,3.27
2019-04-22T14:58:01.907Z,3.23
2019-04-22T15:00:32.059Z,2.83
2019-04-22T15:03:03.693Z,3.17
2019-04-22T15:05:34.391Z,3.30
2019-04-22T15:08:04.440Z,3.67
2019-04-22T15:10:36.079Z,3.37
2019-04-22T15:13:07.381Z,3.30
2019-04-22T15:16:02.703Z,2.80
2019-04-22T15:18:44.053Z,2.63
2019-04-22T15:21:18.567Z,3.00
2019-04-22T15:23:48.715Z,2.93
2019-04-22T15:26:20.235Z,2.90
2019-04-22T15:28:51.390Z,3.60
2019-04-22T15:31:21.689Z,3.07
2019-04-22T15:33:52.345Z,3.00
2019-04-22T15:36:22.472Z,2.90
2019-04-22T15:38:53.440Z,3.10
2019-04-22T15:41:24.908Z,3.60
2019-04-22T15:43:54.984Z,3.70
2019-04-22T15:46:25.720Z,3.30
2019-04-22T15:48:55.951Z,2.77
2019-04-22T15:51:26.811Z,3.33
2019-04-22T15:53:58.067Z,3.03
2019-04-22T15:56:28.502Z,3.27
2019-04-22T15:58:59.737Z,2.90
2019-04-22T16:01:34.016Z,2.70
2019-04-22T16:04:02.753Z,3.03
2019-04-22T16:06:32.960Z,3.50
2019-04-22T16:09:04.568Z,2.77
2019-04-22T16:11:35.973Z,2.60
2019-04-22T16:14:06.482Z,2.53
2019-04-22T16:16:37.126Z,2.70
2019-04-22T16:19:06.912Z,3.00
2019-04-22T16:21:43.220Z,3.13
2019-04-22T16:24:31.899Z,3.60
2019-04-22T16:27:14.111Z,2.60
2019-04-22T16:29:43.185Z,2.87
2019-04-22T16:32:13.655Z,2.73
2019-04-22T16:34:43.709Z,3.30
2019-04-22T16:37:14.732Z,2.70
2019-04-22T16:39:46.479Z,2.67
2019-04-22T16:42:28.475Z,2.53
2019-04-22T16:44:47.669Z,2.80
2019-04-22T16:47:17.915Z,2.30
2019-04-22T16:49:47.931Z,2.90
2019-04-22T16:52:18.251Z,2.10
2019-04-22T16:54:47.616Z,2.30
2019-04-22T16:57:17.871Z,2.87
2019-04-22T17:00:08.775Z,2.50
2019-04-22T17:03:04.730Z,2.63
2019-04-22T17:05:53.619Z,2.77
2019-04-22T17:08:24.554Z,2.50
2019-04-22T17:10:55.776Z,2.33
2019-04-22T17:13:30.298Z,2.33
2019-04-22T17:15:59.053Z,2.70
2019-04-22T17:18:27.781Z,2.57
2019-04-22T17:20:58.480Z,2.40
2019-04-22T17:23:29.649Z,2.40
2019-04-22T17:26:00.816Z,2.60
2019-04-22T17:28:31.435Z,2.53
2019-04-22T17:31:01.920Z,2.40
2019-04-22T17:33:32.698Z,2.43
2019-04-22T17:36:18.219Z,2.40
2019-04-22T17:39:27.039Z,2.60
2019-04-22T17:41:50.483Z,2.53
2019-04-22T17:44:41.403Z,2.50
2019-04-22T17:47:05.199Z,2.40
2019-04-22T17:49:54.073Z,2.33
2019-04-22T17:54:50.136Z,2.40
2019-04-22T17:57:24.179Z,2.33
2019-04-22T17:59:50.542Z,2.60
2019-04-22T18:02:24.647Z,2.43
2019-04-22T18:04:46.071Z,2.40
2019-04-22T18:10:23.738Z,2.40
2019-04-22T18:12:38.276Z,2.50
2019-04-22T18:15:07.216Z,2.20
2019-04-22T18:17:37.374Z,2.73
2019-04-22T18:20:01.344Z,2.10
2019-04-22T18:22:24.469Z,2.43
2019-04-22T18:24:58.323Z,2.37
2019-04-22T18:27:48.844Z,2.17
2019-04-22T18:30:05.139Z,2.37
2019-04-22T18:32:37.956Z,2.10
2019-04-22T18:35:16.668Z,2.47
2019-04-22T18:37:53.655Z,2.50
2019-04-22T18:40:29.281Z,3.37
2019-04-22T18:42:58.427Z,2.37
2019-04-22T18:47:48.825Z,2.53
2019-04-22T18:50:36.960Z,3.40
2019-04-22T18:53:25.247Z,2.23
2019-04-22T18:55:54.735Z,2.70
2019-04-22T18:58:21.302Z,2.47
2019-04-22T19:00:43.865Z,2.50
2019-04-22T19:03:19.635Z,2.37
2019-04-22T19:06:09.486Z,2.80
2019-04-22T19:08:36.696Z,2.83
2019-04-22T19:21:12.512Z,2.73
2019-04-22T19:23:45.062Z,2.80
2019-04-22T19:26:20.547Z,2.60
2019-04-22T19:28:49.445Z,3.00
2019-04-22T19:33:56.288Z,2.73
2019-04-22T19:36:23.796Z,2.37
2019-04-22T19:38:52.565Z,2.60
2019-04-22T19:41:29.462Z,2.80
2019-04-22T19:44:00.634Z,2.90
2019-04-22T19:46:28.330Z,2.97
2019-04-22T19:49:05.210Z,2.80
2019-04-22T19:51:37.002Z,3.40
2019-04-22T19:54:01.010Z,2.97
2019-04-22T19:56:28.306Z,2.93
2019-04-22T19:59:02.103Z,3.10
2019-04-22T20:02:00.648Z,2.93
2019-04-22T20:04:46.128Z,3.30
2019-04-22T20:07:21.470Z,3.07
2019-04-22T20:09:55.301Z,2.60
2019-04-22T20:12:24.607Z,3.03
2019-04-22T20:14:54.465Z,3.53
2019-04-22T20:17:38.818Z,2.97
2019-04-22T20:20:06.353Z,3.20
2019-04-22T20:22:30.139Z,3.33
2019-04-22T20:24:54.236Z,3.50
2019-04-22T20:27:36.297Z,2.80
2019-04-22T20:30:06.552Z,3.10
2019-04-22T20:32:37.326Z,3.00
2019-04-22T20:35:18.047Z,3.17
2019-04-22T20:37:47.730Z,4.30
2019-04-22T20:40:16.852Z,3.13
2019-04-22T20:42:48.685Z,3.23
2019-04-22T20:45:15.923Z,3.73
2019-04-22T20:47:42.563Z,3.57
2019-04-22T20:50:21.428Z,4.27
2019-04-22T20:52:55.449Z,3.70
2019-04-22T20:55:16.410Z,3.50
2019-04-22T20:57:53.638Z,3.50
2019-04-22T21:00:20.068Z,3.93
2019-04-22T21:02:46.500Z,3.20
2019-04-22T21:05:19.614Z,3.93
2019-04-22T21:08:06.341Z,3.40
2019-04-22T21:10:22.882Z,3.60
2019-04-22T21:13:01.249Z,3.87
2019-04-22T21:15:40.821Z,3.60
2019-04-22T21:18:05.571Z,3.60
2019-04-22T21:20:47.801Z,3.70
2019-04-22T21:23:12.480Z,2.93
2019-04-22T21:25:32.674Z,3.47
2019-04-22T21:28:14.354Z,3.23
2019-04-22T21:30:43.056Z,3.67
2019-04-22T21:33:10.579Z,3.57
2019-04-22T21:35:59.131Z,3.83
2019-04-22T21:38:25.032Z,3.70
2019-04-22T21:40:47.392Z,3.13
2019-04-22T21:43:27.063Z,3.77
2019-04-22T21:45:57.407Z,3.30
2019-04-22T21:48:31.155Z,3.27
2019-04-22T21:53:38.049Z,3.03
2019-04-22T21:56:25.386Z,3.57
2019-04-22T21:58:56.104Z,3.83
2019-04-22T22:01:42.622Z,3.30
2019-04-22T22:04:05.383Z,3.63
2019-04-22T22:06:33.306Z,3.47
2019-04-22T22:09:15.637Z,3.23
2019-04-22T22:11:40.038Z,2.93
2019-04-22T22:14:12.350Z,3.53
2019-04-22T22:16:38.367Z,4.07
2019-04-22T22:19:17.781Z,3.27
2019-04-22T22:22:06.157Z,3.43
2019-04-22T22:24:22.591Z,4.57
2019-04-22T22:26:55.971Z,3.60
2019-04-22T22:29:38.567Z,3.37
2019-04-22T22:32:02.736Z,3.50
2019-04-22T22:34:43.421Z,3.37
2019-04-22T22:36:53.049Z,3.97
2019-04-22T22:39:23.207Z,3.50
2019-04-22T22:41:43.995Z,3.10
2019-04-22T22:44:21.112Z,3.40
2019-04-22T22:47:03.560Z,3.63
2019-04-22T22:49:39.657Z,3.50
2019-04-22T22:52:39.562Z,3.50
2019-04-22T22:54:39.225Z,4.33
2019-04-22T22:59:43.051Z,3.90
2019-04-22T23:02:20.253Z,3.73
2019-04-22T23:04:54.546Z,3.80
2019-04-22T23:07:24.022Z,3.90
2019-04-22T23:09:50.305Z,3.83
2019-04-22T23:14:54.397Z,3.50
2019-04-22T23:17:11.869Z,4.27
2019-04-22T23:19:40.669Z,4.13
2019-04-22T23:22:25.408Z,4.17
2019-04-22T23:25:01.704Z,3.33
2019-04-22T23:27:34.571Z,3.87
2019-04-22T23:30:08.879Z,3.97
2019-04-22T23:32:39.952Z,3.90
2019-04-22T23:35:30.743Z,3.93
2019-04-22T23:38:00.101Z,4.00
2019-04-22T23:40:34.338Z,3.57
2019-04-22T23:43:09.455Z,4.37
2019-04-22T23:45:41.553Z,3.57
2019-04-22T23:48:06.859Z,3.80
2019-04-22T23:50:47.297Z,3.73
2019-04-22T23:53:47.448Z,4.10
2019-04-22T23:56:04.608Z,4.17
2019-04-22T23:58:57.886Z,4.07
